Heinrich-Heine-Allee, Germany

11:41 AM CET on March 23, 2017 (GMT +0100)
Liefergasse | | Change Station

Elev 134 ft 51.23 °N, 6.77 °E | Updated 8 minutes ago

Partly Cloudy
Partly Cloudy
52.0 °F
Feels Like 52.0 °F
N
0.6
Wind Variable Wind from NNE
Gusts 2.5 mph

Today
High -- | Low -- °F
--% Chance of Precip.
Yesterday
High -- | Low -- °F
Precip. -- in
Pressure 30.01 in
Visibility 6.2 miles
Clouds Few 3400 ft
Scattered Clouds 25000 ft
Dew Point 41 °F
Humidity 65%
Rainfall 0.00 in
Snow Depth Not available.
6:28 AM 6:51 PM
Waning Crescent, 24% visible
METAR EDDL 231020Z 10008KT 060V140 9999 FEW034 SCT250 12/04 Q1016 NOSIG
Pressure 30.01 in
Visibility 6.2 miles
Clouds Few 3400 ft
Scattered Clouds 25000 ft
Dew Point 41 °F
Humidity 65%
Rainfall 0.00 in
Snow Depth Not available.
6:28 AM 6:51 PM
Waning Crescent, 24% visible
METAR EDDL 231020Z 10008KT 060V140 9999 FEW034 SCT250 12/04 Q1016 NOSIG

Get Severe Weather Alerts

Thanks for signing up!

Be on the lookout for a verification email in your inbox.

You'll start receiving the daily forecast at 8 AM.

×

10-Day Weather Forecast

×

Almanac

Astronomy

Mar. 23, 2017 Rise Set
Actual Time
Civil Twilight
Nautical Twilight
Astronomical Twilight
Moon
Length of Visible Light
Length of Day
Tomorrow will be .
, % of the Moon is Illuminated

Today's Extremes

Country Highs Country Lows

Community

WunderPhotos

Upload Photos

1,962,540 photos uploaded!

WunderBlog® & News

Nearby

Air Quality

  Air Quality AQ Index Pollutant
Not available.

Snow Depth

Station Depth Elevation

Earthquake Activity

City Distance Mag. Time & Date
Minimum magnitude displayed is 2.5.

Earthquake Activity

City Distance Mag. Time & Date
Minimum magnitude displayed is 2.5.

Coastal Water Temperatures

Place Temperature

Stations

Nearby Weather Stations

Station Location Temp. Windchill Dew Point Humidity Wind Precip. Elev Updated Type